Time;durP1;ratioP1;P1;durP2;ratioP2;P2;SDS_P1;SDS_P2;PMS_P1;PMS_P2;Temp;Humidity;BMP_temperature;BMP_pressure;BME280_temperature;BME280_humidity;BME280_pressure;Samples;Min_cycle;Max_cycle;Signal;HPM_P1;HPM_P2
2022/07/04 00:00:42;;;;;;;;;;;;;;;27.33;35.28;100886.75;5020076;28;1025;-36
2022/07/04 00:03:07;;;;;;;;;;;;;;;27.34;35.47;100891.16;5019438;28;1112;-37
2022/07/04 00:05:32;;;;;;;;;;;;;;;27.30;35.56;100879.00;5019238;28;1167;-38
2022/07/04 00:07:58;;;;;;;;;;;;;;;27.33;34.98;100882.19;5019065;28;829;-39
2022/07/04 00:10:23;;;;;;;;;;;;;;;27.31;34.81;100888.81;5019744;28;1064;-37
2022/07/04 00:12:48;;;;;;;;;;;;;;;27.29;35.34;100886.28;5014386;28;2372;-38
2022/07/04 00:15:14;;;;;;;;;;;;;;;27.28;34.96;100881.91;5019900;28;1029;-38
2022/07/04 00:17:39;;;;;;;;;;;;;;;27.30;34.71;100876.31;5019405;28;1890;-38
2022/07/04 00:20:05;;;;;;;;;;;;;;;27.28;35.18;100884.59;5019069;28;1009;-38
2022/07/04 00:22:30;;;;;;;;;;;;;;;27.26;34.92;100881.22;5018958;28;990;-39
2022/07/04 00:24:55;;;;;;;;;;;;;;;27.30;35.13;100876.31;5019274;28;1235;-38
2022/07/04 00:27:21;;;;;;;;;;;;;;;27.30;34.87;100877.16;5019263;28;1112;-39
2022/07/04 00:29:46;;;;;;;;;;;;;;;27.25;34.97;100872.31;5018634;28;1195;-39
2022/07/04 00:32:11;;;;;;;;;;;;;;;27.29;34.89;100875.50;5018809;28;1144;-39
2022/07/04 00:34:36;;;;;;;;;;;;;;;27.25;35.03;100880.41;5019194;28;1046;-39
2022/07/04 00:37:02;;;;;;;;;;;;;;;27.33;35.39;100878.66;5018653;28;946;-39
2022/07/04 00:39:27;;;;;;;;;;;;;;;27.30;35.29;100881.72;5019207;28;1959;-38
2022/07/04 00:41:52;;;;;;;;;;;;;;;27.28;34.84;100881.06;5017959;28;2640;-39
2022/07/04 00:44:17;;;;;;;;;;;;;;;27.26;35.34;100875.81;5018310;28;969;-39
2022/07/04 00:46:43;;;;;;;;;;;;;;;27.27;35.54;100885.63;5018762;28;1160;-40
2022/07/04 00:49:09;;;;;;;;;;;;;;;27.32;35.46;100888.63;5018791;28;1164;-39
2022/07/04 00:51:34;;;;;;;;;;;;;;;27.25;35.33;100880.41;5018464;28;1085;-37
2022/07/04 00:54:00;;;;;;;;;;;;;;;27.25;35.58;100880.41;5000447;28;1125;-39
2022/07/04 00:56:25;;;;;;;;;;;;;;;27.29;35.40;100874.63;5018355;28;1168;-39
2022/07/04 00:58:50;;;;;;;;;;;;;;;27.26;35.03;100873.97;5017882;28;1981;-39
2022/07/04 01:01:16;;;;;;;;;;;;;;;27.29;35.07;100871.94;5018843;28;1152;-38
2022/07/04 01:03:42;;;;;;;;;;;;;;;27.29;35.30;100862.00;5018728;28;1025;-40
2022/07/04 01:06:10;;;;;;;;;;;;;;;27.30;35.14;100873.59;5018643;28;1214;-39
2022/07/04 01:08:39;;;;;;;;;;;;;;;27.33;34.87;100866.00;5017938;28;914;-39
2022/07/04 01:11:04;;;;;;;;;;;;;;;27.29;34.97;100870.09;5018479;28;970;-39
2022/07/04 01:13:30;;;;;;;;;;;;;;;27.29;35.12;100871.94;5018417;28;2532;-39
2022/07/04 01:15:55;;;;;;;;;;;;;;;27.26;35.17;100870.44;5017985;28;1034;-38
2022/07/04 01:18:20;;;;;;;;;;;;;;;27.29;35.20;100867.38;5017847;28;1951;-39
2022/07/04 01:20:46;;;;;;;;;;;;;;;27.30;35.43;100866.34;5017653;28;891;-39
2022/07/04 01:23:11;;;;;;;;;;;;;;;27.29;35.11;100862.00;5018261;28;1071;-39
2022/07/04 01:25:36;;;;;;;;;;;;;;;27.28;35.14;100862.16;5017992;28;1041;-40
2022/07/04 01:28:02;;;;;;;;;;;;;;;27.25;34.94;100861.50;5018460;28;1408;-39
2022/07/04 01:30:27;;;;;;;;;;;;;;;27.30;35.00;100860.09;5017826;28;1137;-38
2022/07/04 01:32:53;;;;;;;;;;;;;;;27.32;35.01;100868.88;5017427;28;857;-39
2022/07/04 01:35:18;;;;;;;;;;;;;;;27.32;35.71;100871.56;5017969;28;982;-39
2022/07/04 01:37:44;;;;;;;;;;;;;;;27.32;34.99;100875.13;5017960;28;1947;-39
2022/07/04 01:40:11;;;;;;;;;;;;;;;27.26;35.11;100873.97;5017883;28;1010;-39
2022/07/04 01:42:36;;;;;;;;;;;;;;;27.29;34.83;100869.25;5017901;28;2525;-39
2022/07/04 01:45:02;;;;;;;;;;;;;;;27.32;35.01;100879.69;5017785;28;1126;-38
2022/07/04 01:47:27;;;;;;;;;;;;;;;27.31;34.94;100870.72;5017648;28;1176;-40
2022/07/04 01:49:53;;;;;;;;;;;;;;;27.32;35.12;100882.38;5018105;28;978;-38
2022/07/04 01:52:18;;;;;;;;;;;;;;;27.28;34.90;100879.19;5017173;28;1184;-39
2022/07/04 01:54:43;;;;;;;;;;;;;;;27.28;34.99;100868.38;5017569;28;978;-38
2022/07/04 01:57:08;;;;;;;;;;;;;;;27.29;35.01;100869.25;5017838;28;1066;-39
2022/07/04 02:02:22;;;;;;;;;;;;;;;27.32;35.00;100880.53;5001337;28;1131;-39
2022/07/04 02:04:48;;;;;;;;;;;;;;;27.31;35.42;100878.81;5017716;28;1219;-37
2022/07/04 02:07:13;;;;;;;;;;;;;;;27.29;35.18;100878.19;5017269;28;991;-40
2022/07/04 02:09:38;;;;;;;;;;;;;;;27.31;34.99;100878.81;5016798;28;1250;-38
2022/07/04 02:14:48;;;;;;;;;;;;;;;27.24;35.67;100881.41;5016847;28;1026;-39
2022/07/04 02:17:13;;;;;;;;;;;;;;;27.30;35.47;100887.97;5017417;28;982;-39
2022/07/04 02:19:38;;;;;;;;;;;;;;;27.33;35.50;100884.03;5016458;28;1898;-38
2022/07/04 02:22:04;;;;;;;;;;;;;;;27.32;35.29;100882.38;5017169;28;1078;-39
2022/07/04 02:24:29;;;;;;;;;;;;;;;27.34;34.94;100881.16;5017432;28;1029;-37
2022/07/04 02:26:55;;;;;;;;;;;;;;;27.29;35.47;100882.75;5016888;28;1176;-38
2022/07/04 02:29:20;;;;;;;;;;;;;;;27.31;35.24;100888.81;5016945;28;950;-38
2022/07/04 02:31:45;;;;;;;;;;;;;;;27.28;35.32;100886.47;5016732;28;962;-38
2022/07/04 02:34:10;;;;;;;;;;;;;;;27.28;34.85;100892.69;5016910;28;982;-39
2022/07/04 02:36:36;;;;;;;;;;;;;;;27.26;35.20;100894.72;5016552;28;1037;-38
2022/07/04 02:39:01;;;;;;;;;;;;;;;27.23;35.46;100893.25;5013065;28;1952;-39
2022/07/04 02:41:26;;;;;;;;;;;;;;;27.24;35.32;100892.22;5015736;28;2372;-38
2022/07/04 02:43:52;;;;;;;;;;;;;;;27.24;35.67;100896.78;5013789;28;1141;-40
2022/07/04 02:46:17;;;;;;;;;;;;;;;27.25;35.55;100898.47;5016669;28;1253;-40
2022/07/04 02:48:42;;;;;;;;;;;;;;;27.29;35.26;100902.50;5016695;28;1093;-39
2022/07/04 02:51:08;;;;;;;;;;;;;;;27.20;35.49;100907.13;5016399;28;1017;-38
2022/07/04 02:53:33;;;;;;;;;;;;;;;27.22;35.35;100907.78;5016421;28;994;-38
2022/07/04 02:55:58;;;;;;;;;;;;;;;27.28;35.26;100908.09;5016842;28;1164;-39
2022/07/04 02:58:23;;;;;;;;;;;;;;;27.25;35.31;100910.13;5016711;28;1971;-38
2022/07/04 03:00:49;;;;;;;;;;;;;;;27.29;35.06;100907.06;5016705;28;1136;-36
2022/07/04 03:03:14;;;;;;;;;;;;;;;27.27;35.30;100909.94;5016337;28;954;-38
2022/07/04 03:05:39;;;;;;;;;;;;;;;27.24;35.20;100910.31;5016315;28;1022;-39
2022/07/04 03:08:05;;;;;;;;;;;;;;;27.23;35.60;100909.44;5015793;28;1021;-38
2022/07/04 03:10:30;;;;;;;;;;;;;;;27.25;35.01;100926.31;5016825;28;1099;-38
2022/07/04 03:12:55;;;;;;;;;;;;;;;27.25;35.14;100917.38;5014255;28;2700;-39
2022/07/04 03:15:21;;;;;;;;;;;;;;;27.26;34.91;100919.88;5015979;28;1080;-39
2022/07/04 03:17:46;;;;;;;;;;;;;;;27.33;35.16;100916.47;5016161;28;1953;-40
2022/07/04 03:20:11;;;;;;;;;;;;;;;27.26;34.92;100913.63;5016024;28;1315;-39
2022/07/04 03:22:36;;;;;;;;;;;;;;;27.31;36.05;100916.63;5015478;28;1160;-40
2022/07/04 03:25:02;;;;;;;;;;;;;;;27.25;36.49;100915.50;5016303;28;1018;-38
2022/07/04 03:27:27;;;;;;;;;;;;;;;27.31;35.88;100918.53;5016620;28;1037;-41
2022/07/04 03:29:53;;;;;;;;;;;;;;;27.19;35.02;100916.25;5015827;28;1043;-40
2022/07/04 03:32:18;;;;;;;;;;;;;;;27.06;34.48;100916.00;5015341;28;1299;-39
2022/07/04 03:34:43;;;;;;;;;;;;;;;27.05;34.39;100914.28;5015813;28;1263;-40
2022/07/04 03:37:08;;;;;;;;;;;;;;;26.95;34.76;100917.19;5015717;28;1212;-38
2022/07/04 03:39:34;;;;;;;;;;;;;;;26.93;34.96;100914.66;5015807;28;1918;-41
2022/07/04 03:41:59;;;;;;;;;;;;;;;26.93;34.30;100905.72;5015233;28;2431;-42
2022/07/04 03:44:24;;;;;;;;;;;;;;;26.97;34.49;100915.16;5015256;28;1290;-38
2022/07/04 03:46:50;;;;;;;;;;;;;;;26.72;35.35;100908.06;5015918;28;1133;-40
2022/07/04 03:49:15;;;;;;;;;;;;;;;26.35;36.22;100915.78;5015235;28;1482;-39
2022/07/04 03:51:40;;;;;;;;;;;;;;;26.20;36.77;100918.31;5015408;28;1096;-39
2022/07/04 03:54:06;;;;;;;;;;;;;;;26.18;36.76;100914.97;5015661;28;1139;-39
2022/07/04 03:56:32;;;;;;;;;;;;;;;26.26;35.99;100919.47;5014631;28;1222;-39
2022/07/04 03:58:57;;;;;;;;;;;;;;;26.33;35.10;100916.97;5015258;28;1910;-39
2022/07/04 04:01:22;;;;;;;;;;;;;;;26.26;34.82;100920.31;5014424;28;955;-39
2022/07/04 04:06:31;;;;;;;;;;;;;;;26.19;34.58;100908.56;5015694;28;1056;-39
2022/07/04 04:08:57;;;;;;;;;;;;;;;26.13;34.57;100912.78;5015560;28;1093;-39
2022/07/04 04:11:22;;;;;;;;;;;;;;;26.40;34.58;100917.97;5012002;28;1918;-39
2022/07/04 04:13:47;;;;;;;;;;;;;;;26.42;34.01;100921.34;5013858;28;1006;-39
2022/07/04 04:16:12;;;;;;;;;;;;;;;25.99;34.79;100917.00;5015867;28;980;-39
2022/07/04 04:18:38;;;;;;;;;;;;;;;25.30;36.50;100915.50;5015691;28;1902;-38
2022/07/04 04:21:03;;;;;;;;;;;;;;;25.31;36.26;100915.34;5015206;28;1341;-39
2022/07/04 04:23:29;;;;;;;;;;;;;;;25.36;36.30;100914.00;5015922;28;946;-39
2022/07/04 04:25:54;;;;;;;;;;;;;;;25.58;35.57;100914.31;5015598;28;985;-39
2022/07/04 04:28:19;;;;;;;;;;;;;;;25.44;35.67;100914.84;5015482;28;853;-38
2022/07/04 04:30:45;;;;;;;;;;;;;;;25.30;36.22;100915.50;5015772;28;1061;-39
2022/07/04 04:33:10;;;;;;;;;;;;;;;25.51;36.01;100922.22;5015353;28;831;-38
2022/07/04 04:35:35;;;;;;;;;;;;;;;25.96;34.62;100914.66;5019453;28;1057;-41
2022/07/04 04:38:01;;;;;;;;;;;;;;;26.20;34.45;100915.63;5017362;28;1926;-40
2022/07/04 04:40:26;;;;;;;;;;;;;;;25.68;36.35;100917.72;5018960;28;1080;-38
2022/07/04 04:42:51;;;;;;;;;;;;;;;26.23;35.47;100912.59;5018612;28;1985;-36
2022/07/04 04:45:16;;;;;;;;;;;;;;;26.48;34.90;100912.53;5018583;28;978;-39
2022/07/04 04:47:43;;;;;;;;;;;;;;;26.49;34.84;100908.81;5018584;28;1036;-38
2022/07/04 04:50:11;;;;;;;;;;;;;;;26.44;34.93;100910.38;5019248;28;962;-39
2022/07/04 04:52:37;;;;;;;;;;;;;;;26.10;35.37;100906.88;5019189;28;1196;-39
2022/07/04 04:55:02;;;;;;;;;;;;;;;25.82;35.83;100920.75;5018673;28;982;-38
2022/07/04 04:57:27;;;;;;;;;;;;;;;25.85;36.21;100915.03;5018626;28;962;-39
2022/07/04 04:59:53;;;;;;;;;;;;;;;26.13;35.68;100915.47;5018662;28;1914;-39
2022/07/04 05:02:18;;;;;;;;;;;;;;;25.73;36.27;100915.38;5018637;28;1054;-38
2022/07/04 05:04:43;;;;;;;;;;;;;;;25.32;37.48;100918.88;5018667;28;1156;-38
2022/07/04 05:07:08;;;;;;;;;;;;;;;25.91;36.56;100915.19;5018409;28;1057;-38
2022/07/04 05:09:34;;;;;;;;;;;;;;;26.32;36.39;100918.81;5018161;28;1117;-37
2022/07/04 05:11:59;;;;;;;;;;;;;;;25.56;38.04;100922.56;5018050;28;1985;-38
2022/07/04 05:14:24;;;;;;;;;;;;;;;26.29;36.54;100929.94;5018495;28;1377;-36
2022/07/04 05:16:50;;;;;;;;;;;;;;;26.50;36.01;100925.84;5018237;28;1144;-39
2022/07/04 05:19:15;;;;;;;;;;;;;;;26.69;36.44;100921.91;5018076;28;1902;-38
2022/07/04 05:21:40;;;;;;;;;;;;;;;25.20;39.54;100929.13;5017935;28;1053;-38
2022/07/04 05:24:06;;;;;;;;;;;;;;;25.58;39.16;100928.66;5017991;28;982;-37
2022/07/04 05:26:31;;;;;;;;;;;;;;;24.68;41.53;100923.75;5017856;28;1026;-39
2022/07/04 05:28:57;;;;;;;;;;;;;;;25.20;40.70;100923.75;5017791;28;998;-37
2022/07/04 05:31:24;;;;;;;;;;;;;;;25.60;39.54;100929.31;5017914;28;1033;-39
2022/07/04 05:33:49;;;;;;;;;;;;;;;25.17;40.16;100924.91;5018151;28;1097;-38
2022/07/04 05:36:15;;;;;;;;;;;;;;;25.75;38.62;100929.53;5017922;28;1183;-39
2022/07/04 05:38:40;;;;;;;;;;;;;;;25.95;38.05;100926.47;5017540;28;1957;-38
2022/07/04 05:41:05;;;;;;;;;;;;;;;26.19;37.28;100927.44;5017136;28;935;-37
2022/07/04 05:43:30;;;;;;;;;;;;;;;26.26;37.03;100928.41;5017861;28;2322;-37
2022/07/04 05:45:56;;;;;;;;;;;;;;;26.41;36.56;100927.72;5017148;28;1341;-35
2022/07/04 05:48:21;;;;;;;;;;;;;;;26.47;36.46;100935.13;5016559;28;1072;-37
2022/07/04 05:50:46;;;;;;;;;;;;;;;26.55;36.45;100934.25;5017726;28;1120;-39
2022/07/04 05:53:12;;;;;;;;;;;;;;;26.73;36.08;100933.16;5017372;28;1006;-38
2022/07/04 05:55:37;;;;;;;;;;;;;;;26.95;35.74;100945.03;5017655;28;958;-39
2022/07/04 05:58:02;;;;;;;;;;;;;;;26.98;36.03;100936.56;5017303;28;1967;-38
2022/07/04 06:00:27;;;;;;;;;;;;;;;27.19;35.89;100945.09;5017589;28;1046;-39
2022/07/04 06:02:53;;;;;;;;;;;;;;;27.16;35.83;100948.97;5017013;28;1128;-37
2022/07/04 06:05:18;;;;;;;;;;;;;;;27.22;36.63;100956.41;5016314;28;1259;-39
2022/07/04 06:07:43;;;;;;;;;;;;;;;27.58;37.23;100954.94;5017144;28;959;-40
2022/07/04 06:10:09;;;;;;;;;;;;;;;27.74;36.57;100955.88;5017046;28;919;-39
2022/07/04 06:12:34;;;;;;;;;;;;;;;27.84;35.99;100959.13;5019035;28;1970;-39
2022/07/04 06:15:00;;;;;;;;;;;;;;;27.64;37.31;100953.38;5017385;28;1187;-40
2022/07/04 06:17:25;;;;;;;;;;;;;;;27.59;38.33;100953.91;5016984;28;1026;-38
2022/07/04 06:19:50;;;;;;;;;;;;;;;27.61;37.34;100954.56;5016796;28;1898;-38
2022/07/04 06:22:16;;;;;;;;;;;;;;;27.62;38.28;100947.31;5016772;28;827;-35
2022/07/04 06:24:41;;;;;;;;;;;;;;;27.64;38.90;100945.28;5016920;28;998;-38
2022/07/04 06:27:06;;;;;;;;;;;;;;;27.16;41.59;100948.16;5021187;28;1180;-38
2022/07/04 06:29:32;;;;;;;;;;;;;;;27.52;39.22;100944.88;5017430;28;1116;-38
2022/07/04 06:31:57;;;;;;;;;;;;;;;27.85;40.08;100939.22;5016631;28;966;-37
2022/07/04 06:37:06;;;;;;;;;;;;;;;27.18;41.68;100932.59;5015959;28;1069;-38
2022/07/04 06:39:31;;;;;;;;;;;;;;;27.97;38.79;100927.94;5016395;28;1899;-40
2022/07/04 06:41:57;;;;;;;;;;;;;;;28.13;38.86;100935.03;5016606;28;2188;-42
2022/07/04 06:44:22;;;;;;;;;;;;;;;27.49;40.35;100937.94;5016836;28;1144;-41
2022/07/04 06:46:48;;;;;;;;;;;;;;;27.76;39.86;100932.19;5016258;28;997;-38
2022/07/04 06:49:13;;;;;;;;;;;;;;;26.23;43.48;100939.56;5016606;28;962;-39
2022/07/04 06:51:38;;;;;;;;;;;;;;;26.69;43.02;100937.25;5016917;28;1039;-40
2022/07/04 06:54:04;;;;;;;;;;;;;;;27.10;41.90;100944.31;5016542;28;982;-39
2022/07/04 06:56:29;;;;;;;;;;;;;;;27.04;42.85;100947.72;5015238;28;1151;-39
2022/07/04 06:58:54;;;;;;;;;;;;;;;27.53;41.81;100951.13;5015445;28;1965;-38
2022/07/04 07:01:20;;;;;;;;;;;;;;;27.34;41.75;100943.28;5016366;28;1042;-36
2022/07/04 07:03:45;;;;;;;;;;;;;;;26.15;45.02;100944.97;5014826;28;1010;-38
2022/07/04 07:06:10;;;;;;;;;;;;;;;27.04;42.70;100947.72;5016553;28;978;-38
2022/07/04 07:08:35;;;;;;;;;;;;;;;26.56;44.14;100957.50;5015981;28;1235;-38
2022/07/04 07:11:13;;;;;;;;;;;;;;;27.04;43.00;100945.03;5015597;28;1135;-39
2022/07/04 07:13:39;;;;;;;;;;;;;;;28.02;40.22;100954.41;5011099;28;2409;-38
2022/07/04 07:16:04;;;;;;;;;;;;;;;28.39;38.71;100947.31;5016292;28;1006;-38
2022/07/04 07:18:30;;;;;;;;;;;;;;;28.47;38.60;100949.91;5016433;28;1953;-38
2022/07/04 07:20:55;;;;;;;;;;;;;;;28.60;38.09;100957.38;5014329;28;1192;-37
2022/07/04 07:23:20;;;;;;;;;;;;;;;28.65;38.10;100947.81;5016401;28;1448;-38
2022/07/04 07:25:46;;;;;;;;;;;;;;;28.76;38.44;100955.47;5015792;28;1120;-38
2022/07/04 07:28:11;;;;;;;;;;;;;;;28.61;38.17;100955.50;5016304;28;1080;-37
2022/07/04 07:30:36;;;;;;;;;;;;;;;28.50;38.75;100955.97;5016060;28;982;-38
2022/07/04 07:33:01;;;;;;;;;;;;;;;28.70;37.22;100957.06;5016143;28;1112;-41
2022/07/04 07:35:27;;;;;;;;;;;;;;;28.84;37.99;100955.34;5016025;28;982;-39
2022/07/04 07:37:52;;;;;;;;;;;;;;;29.04;37.32;100952.09;5015755;28;1906;-39
2022/07/04 07:40:17;;;;;;;;;;;;;;;29.05;38.18;100955.63;5015922;28;947;-36
2022/07/04 07:42:43;;;;;;;;;;;;;;;29.04;37.95;100946.66;5015871;28;2351;-38
2022/07/04 07:45:08;;;;;;;;;;;;;;;28.98;38.33;100946.59;5020707;28;1033;-38
2022/07/04 07:47:33;;;;;;;;;;;;;;;29.02;38.21;100951.44;5015918;28;1207;-32
2022/07/04 07:49:59;;;;;;;;;;;;;;;29.03;37.81;100944.97;5016178;28;1049;-40
2022/07/04 07:52:24;;;;;;;;;;;;;;;29.11;37.65;100946.75;5015465;28;1030;-42
2022/07/04 07:54:50;;;;;;;;;;;;;;;29.32;37.58;100953.19;5015151;28;1262;-40
2022/07/04 07:57:15;;;;;;;;;;;;;;;29.10;37.77;100955.88;5015225;28;974;-40
2022/07/04 07:59:41;;;;;;;;;;;;;;;29.24;37.99;100965.00;5015029;28;1899;-40
2022/07/04 08:02:06;;;;;;;;;;;;;;;29.28;37.45;100955.44;5015354;28;1049;-39
2022/07/04 08:04:34;;;;;;;;;;;;;;;29.17;37.76;100947.84;5015196;28;1453;-40
2022/07/04 08:07:06;;;;;;;;;;;;;;;29.29;37.21;100950.88;5015492;28;1003;-42
2022/07/04 08:09:32;;;;;;;;;;;;;;;29.25;36.96;100944.16;5019639;28;962;-40
2022/07/04 08:11:58;;;;;;;;;;;;;;;29.39;36.97;100951.41;5018923;28;1974;-40
2022/07/04 08:14:23;;;;;;;;;;;;;;;29.66;35.76;100942.69;5019103;28;970;-41
2022/07/04 08:16:48;;;;;;;;;;;;;;;29.46;36.41;100946.88;5022878;28;987;-38
2022/07/04 08:19:14;;;;;;;;;;;;;;;29.42;36.66;100952.88;5018712;28;1886;-41
2022/07/04 08:21:39;;;;;;;;;;;;;;;29.53;35.60;100949.63;5017857;28;1117;-39
2022/07/04 08:24:04;;;;;;;;;;;;;;;29.53;35.12;100944.22;5019076;28;1024;-40
2022/07/04 08:26:30;;;;;;;;;;;;;;;29.73;32.90;100953.59;5019035;28;924;-38
2022/07/04 08:28:57;;;;;;;;;;;;;;;27.81;32.61;100943.28;5019185;28;1081;-39
2022/07/04 08:31:23;;;;;;;;;;;;;;;27.18;30.53;100949.66;5019271;28;1191;-39
2022/07/04 08:33:48;;;;;;;;;;;;;;;27.60;27.23;100946.66;5018800;28;1088;-41
2022/07/04 08:36:14;;;;;;;;;;;;;;;28.72;26.18;100949.59;5019545;28;1018;-39
2022/07/04 08:38:39;;;;;;;;;;;;;;;29.28;25.40;100955.44;5019240;28;1898;-41
2022/07/04 08:41:04;;;;;;;;;;;;;;;29.73;25.75;100951.69;5018855;28;1068;-42
2022/07/04 08:43:32;;;;;;;;;;;;;;;27.74;24.55;100940.47;5018628;28;2060;-41
2022/07/04 08:45:58;;;;;;;;;;;;;;;27.42;33.53;100946.97;5018790;28;971;-41
2022/07/04 08:48:24;;;;;;;;;;;;;;;27.38;34.61;100936.53;5001002;28;1169;-42
2022/07/04 08:50:49;;;;;;;;;;;;;;;28.97;31.16;100940.34;5018465;28;1017;-43
2022/07/04 08:53:15;;;;;;;;;;;;;;;29.67;29.43;100941.66;5018738;28;1033;-43
2022/07/04 08:58:30;;;;;;;;;;;;;;;28.88;28.30;100938.75;5018191;28;1972;-41
2022/07/04 09:00:59;;;;;;;;;;;;;;;29.69;26.62;100934.16;4996245;28;1188;-40
2022/07/04 09:03:25;;;;;;;;;;;;;;;29.28;26.26;100933.78;5012428;28;1017;-41
2022/07/04 09:05:50;;;;;;;;;;;;;;;29.81;26.80;100929.88;5018689;28;1029;-42
2022/07/04 09:08:16;;;;;;;;;;;;;;;29.56;27.25;100919.44;5018188;28;1057;-43
2022/07/04 09:10:41;;;;;;;;;;;;;;;29.48;27.73;100916.84;5017712;28;1124;-42
2022/07/04 09:13:07;;;;;;;;;;;;;;;29.65;26.68;100922.03;5016074;28;2499;-43
2022/07/04 09:15:32;;;;;;;;;;;;;;;30.12;25.29;100921.50;5018605;28;1108;-43
2022/07/04 09:17:58;;;;;;;;;;;;;;;30.16;23.94;100931.75;5017881;28;1965;-42
2022/07/04 09:20:23;;;;;;;;;;;;;;;30.01;22.59;100929.16;5017520;28;970;-43
2022/07/04 09:22:49;;;;;;;;;;;;;;;29.47;21.66;100923.31;5017452;28;989;-41
2022/07/04 09:25:14;;;;;;;;;;;;;;;29.41;23.24;100918.69;5018051;28;977;-41
2022/07/04 09:27:47;;;;;;;;;;;;;;;29.35;22.99;100925.72;5018122;28;1037;-41
2022/07/04 09:30:14;;;;;;;;;;;;;;;30.16;22.61;100918.19;5018171;28;1057;-41
2022/07/04 09:32:40;;;;;;;;;;;;;;;29.50;21.98;100912.09;5017733;28;1516;-41
2022/07/04 09:35:07;;;;;;;;;;;;;;;29.98;23.33;100929.56;4999790;28;1200;-41
2022/07/04 09:37:36;;;;;;;;;;;;;;;29.96;22.13;100920.81;5017313;28;951;-43
2022/07/04 09:40:02;;;;;;;;;;;;;;;28.66;23.47;100917.03;5017904;28;1875;-39
2022/07/04 09:42:34;;;;;;;;;;;;;;;29.24;23.11;100915.38;5012632;28;2458;-39
2022/07/04 09:45:03;;;;;;;;;;;;;;;29.22;23.67;100910.16;5016408;28;998;-35
2022/07/04 09:47:28;;;;;;;;;;;;;;;28.87;22.12;100908.13;5015318;28;1015;-38
2022/07/04 09:50:07;;;;;;;;;;;;;;;29.25;20.25;100917.91;5017296;28;978;-39
2022/07/04 09:52:32;;;;;;;;;;;;;;;28.92;22.24;100908.38;5017527;28;982;-39
2022/07/04 09:55:10;;;;;;;;;;;;;;;29.02;22.90;100910.81;5017435;28;1068;-38
2022/07/04 09:57:35;;;;;;;;;;;;;;;30.18;24.34;100916.13;5016961;28;1135;-39
2022/07/04 10:00:19;;;;;;;;;;;;;;;30.15;26.32;100907.56;5017348;28;1973;-34
2022/07/04 10:02:45;;;;;;;;;;;;;;;30.02;27.45;100920.00;5016240;28;982;-37
2022/07/04 10:05:10;;;;;;;;;;;;;;;29.96;27.48;100909.97;5021942;28;1231;-38
2022/07/04 10:07:36;;;;;;;;;;;;;;;29.77;27.77;100911.47;5017102;28;1310;-38
2022/07/04 10:10:40;;;;;;;;;;;;;;;29.88;27.58;100913.66;5017162;28;1101;-35
2022/07/04 10:13:08;;;;;;;;;;;;;;;29.77;28.02;100917.75;4951986;28;2119;-39
2022/07/04 10:15:36;;;;;;;;;;;;;;;29.76;28.08;100913.34;4950831;29;1039;-39
2022/07/04 10:18:02;;;;;;;;;;;;;;;29.69;28.06;100916.03;4983948;28;1964;-38
2022/07/04 10:20:27;;;;;;;;;;;;;;;29.75;28.72;100919.81;5017188;28;1069;-38
2022/07/04 10:22:53;;;;;;;;;;;;;;;29.65;28.77;100914.75;5016691;28;1002;-37
2022/07/04 10:25:18;;;;;;;;;;;;;;;29.67;28.89;100914.53;5017195;28;1041;-37
2022/07/04 10:27:44;;;;;;;;;;;;;;;29.72;28.86;100909.38;5017134;28;1013;-39
2022/07/04 10:30:11;;;;;;;;;;;;;;;29.64;28.97;100915.78;5016399;28;1436;-39
2022/07/04 10:32:36;;;;;;;;;;;;;;;29.59;28.99;100915.53;4998518;28;971;-37
2022/07/04 10:35:02;;;;;;;;;;;;;;;29.67;28.93;100917.25;4999114;28;1057;-39
2022/07/04 10:37:46;;;;;;;;;;;;;;;29.82;29.62;100917.16;5017044;28;991;-29
2022/07/04 10:40:11;;;;;;;;;;;;;;;28.12;30.35;100911.72;5016864;28;1898;-28
2022/07/04 10:42:39;;;;;;;;;;;;;;;27.24;32.37;100910.31;4998843;28;2063;-32
2022/07/04 10:45:05;;;;;;;;;;;;;;;26.13;35.16;100912.78;5011743;28;1168;-31
2022/07/04 10:47:30;;;;;;;;;;;;;;;25.82;36.13;100913.53;4995308;28;1105;-29
2022/07/04 10:49:56;;;;;;;;;;;;;;;25.51;36.84;100915.00;4996185;28;1002;-29
2022/07/04 10:52:21;;;;;;;;;;;;;;;25.24;37.63;100911.63;4996907;28;1152;-30
2022/07/04 10:54:47;;;;;;;;;;;;;;;24.92;38.71;100907.88;4997062;28;1227;-30
2022/07/04 10:57:13;;;;;;;;;;;;;;;24.72;39.39;100910.81;5007939;28;1104;-30
2022/07/04 10:59:39;;;;;;;;;;;;;;;25.91;38.37;100906.25;4997997;28;1910;-30
2022/07/04 11:02:16;;;;;;;;;;;;;;;26.47;35.24;100904.63;5042701;27;1391963;-33
2022/07/04 11:04:51;;;;;;;;;;;;;;;25.58;37.36;100908.94;5087039;28;984;-34
2022/07/04 11:07:18;;;;;;;;;;;;;;;25.10;38.48;100901.50;5084822;28;1107;-34
2022/07/04 11:09:43;;;;;;;;;;;;;;;24.77;39.68;100904.94;5080554;28;1032;-35
2022/07/04 11:12:08;;;;;;;;;;;;;;;24.37;40.70;100886.63;5080246;28;2117;-33
2022/07/04 11:14:41;;;;;;;;;;;;;;;24.32;41.18;100888.97;5080505;28;1092;-34
2022/07/04 11:17:10;;;;;;;;;;;;;;;24.35;44.90;100888.63;5080499;28;1059;-34
2022/07/04 11:19:35;;;;;;;;;;;;;;;26.47;37.43;100893.81;5081542;28;1120;-39
2022/07/04 11:22:00;;;;;;;;;;;;;;;25.52;38.48;100886.22;5080300;28;1906;-39
2022/07/04 11:24:26;;;;;;;;;;;;;;;24.60;40.58;100887.88;5075564;28;1174;-38
2022/07/04 11:26:52;;;;;;;;;;;;;;;24.05;42.01;100882.72;5080555;28;873;-31
2022/07/04 11:29:17;;;;;;;;;;;;;;;23.83;42.80;100883.13;5077682;28;1027;-33
2022/07/04 11:31:43;;;;;;;;;;;;;;;23.75;42.98;100879.50;5084741;28;1047;-35
2022/07/04 11:34:09;;;;;;;;;;;;;;;24.82;41.52;100879.22;5085436;28;1134;-30
2022/07/04 11:36:34;;;;;;;;;;;;;;;26.14;37.83;100879.41;5078772;28;1189;-30
2022/07/04 11:39:00;;;;;;;;;;;;;;;24.66;41.18;100881.84;5081412;28;954;-36
2022/07/04 11:47:08;;;;;;;;;;;;;;;26.40;37.49;100872.97;5075905;28;867;-31
2022/07/04 11:49:33;;;;;;;;;;;;;;;24.80;41.08;100875.88;5084663;28;1013;-32
2022/07/04 11:51:59;;;;;;;;;;;;;;;24.18;42.50;100875.13;5076973;28;992;-31
2022/07/04 11:54:24;;;;;;;;;;;;;;;23.99;46.81;100872.63;5082862;28;996;-29
2022/07/04 11:56:50;;;;;;;;;;;;;;;25.97;39.36;100880.47;5079268;28;981;-33
2022/07/04 11:59:15;;;;;;;;;;;;;;;25.29;40.38;100876.13;5078106;28;1027;-33
2022/07/04 12:01:42;;;;;;;;;;;;;;;24.44;42.14;100874.22;5075260;28;1898;-30
2022/07/04 12:04:25;;;;;;;;;;;;;;;24.27;43.34;100872.47;5079889;28;979;-30
2022/07/04 12:06:51;;;;;;;;;;;;;;;25.80;40.71;100870.56;5079057;28;965;-33
2022/07/04 12:09:16;;;;;;;;;;;;;;;25.51;40.23;100871.91;5082344;28;1068;-30
2022/07/04 12:11:58;;;;;;;;;;;;;;;24.56;42.13;100873.91;5076319;28;2053;-32
2022/07/04 12:14:23;;;;;;;;;;;;;;;24.02;43.30;100867.78;5069060;28;1056;-31
2022/07/04 12:16:48;;;;;;;;;;;;;;;23.86;43.95;100863.13;5064795;28;1100;-31
2022/07/04 12:19:14;;;;;;;;;;;;;;;23.81;44.29;100868.13;5061885;28;1504;-31
2022/07/04 12:21:39;;;;;;;;;;;;;;;25.15;42.42;100877.63;5069786;28;1890;-32
2022/07/04 12:24:05;;;;;;;;;;;;;;;26.59;39.24;100875.41;5063730;28;1163;-33
2022/07/04 12:26:30;;;;;;;;;;;;;;;24.70;40.91;100867.09;5075254;28;1190;-32
2022/07/04 12:28:56;;;;;;;;;;;;;;;24.38;45.90;100861.44;5071943;28;1052;-28
2022/07/04 12:31:37;;;;;;;;;;;;;;;26.25;38.90;100862.03;5064429;28;948;-32
2022/07/04 12:34:02;;;;;;;;;;;;;;;24.87;42.13;100861.75;5065174;28;970;-29
2022/07/04 12:36:28;;;;;;;;;;;;;;;24.19;43.46;100862.53;5065911;28;992;-32
2022/07/04 12:38:55;;;;;;;;;;;;;;;25.09;42.98;100864.84;5071512;28;1215;-31
2022/07/04 12:41:28;;;;;;;;;;;;;;;25.64;40.35;100862.53;5072805;28;2448;-31
2022/07/04 12:43:54;;;;;;;;;;;;;;;24.49;41.97;100865.66;5064543;28;945;-30
2022/07/04 12:46:32;;;;;;;;;;;;;;;24.49;43.49;100867.53;5063086;28;992;-33
2022/07/04 12:48:57;;;;;;;;;;;;;;;26.10;40.33;100867.31;5061899;28;948;-31
2022/07/04 12:51:29;;;;;;;;;;;;;;;24.74;41.00;100870.28;5071409;28;1253;-33
2022/07/04 12:53:55;;;;;;;;;;;;;;;24.31;45.50;100871.13;5059240;28;945;-32
2022/07/04 12:56:28;;;;;;;;;;;;;;;25.74;40.03;100876.63;5059952;28;1099;-31
2022/07/04 12:58:53;;;;;;;;;;;;;;;25.08;40.61;100869.38;5067151;28;1015;-31
2022/07/04 13:01:18;;;;;;;;;;;;;;;24.17;45.78;100872.59;5066987;28;1897;-33